sensor_id;sensor_type;location;lat;lon;timestamp;temperature;humidity
10536;DHT22;5316;49.538;8.352;2022-12-20T00:00:35;3.10;99.90
10536;DHT22;5316;49.538;8.352;2022-12-20T00:03:02;3.00;99.90
10536;DHT22;5316;49.538;8.352;2022-12-20T00:05:35;3.00;99.90
10536;DHT22;5316;49.538;8.352;2022-12-20T00:08:02;3.00;99.90
10536;DHT22;5316;49.538;8.352;2022-12-20T00:10:29;3.10;99.90
10536;DHT22;5316;49.538;8.352;2022-12-20T00:12:56;3.10;99.90
10536;DHT22;5316;49.538;8.352;2022-12-20T00:15:23;3.00;99.90
10536;DHT22;5316;49.538;8.352;2022-12-20T00:17:49;3.00;99.90
10536;DHT22;5316;49.538;8.352;2022-12-20T00:20:16;3.00;99.90
10536;DHT22;5316;49.538;8.352;2022-12-20T00:22:45;3.00;99.90
10536;DHT22;5316;49.538;8.352;2022-12-20T00:25:12;3.00;99.90
10536;DHT22;5316;49.538;8.352;2022-12-20T00:27:39;3.00;99.90
10536;DHT22;5316;49.538;8.352;2022-12-20T00:30:07;3.00;99.90
10536;DHT22;5316;49.538;8.352;2022-12-20T00:32:36;3.00;99.90
10536;DHT22;5316;49.538;8.352;2022-12-20T00:35:03;3.00;99.90
10536;DHT22;5316;49.538;8.352;2022-12-20T00:37:31;2.90;99.90
10536;DHT22;5316;49.538;8.352;2022-12-20T00:40:00;2.90;99.90
10536;DHT22;5316;49.538;8.352;2022-12-20T00:42:27;2.90;99.90
10536;DHT22;5316;49.538;8.352;2022-12-20T00:44:54;2.90;99.90
10536;DHT22;5316;49.538;8.352;2022-12-20T00:47:21;2.90;99.90
10536;DHT22;5316;49.538;8.352;2022-12-20T00:49:48;2.90;99.90
10536;DHT22;5316;49.538;8.352;2022-12-20T00:52:15;2.90;99.90
10536;DHT22;5316;49.538;8.352;2022-12-20T00:54:42;2.80;99.90
10536;DHT22;5316;49.538;8.352;2022-12-20T00:57:10;2.80;99.90
10536;DHT22;5316;49.538;8.352;2022-12-20T00:59:37;2.80;99.90
10536;DHT22;5316;49.538;8.352;2022-12-20T01:02:04;2.80;99.90
10536;DHT22;5316;49.538;8.352;2022-12-20T01:04:32;2.80;99.90
10536;DHT22;5316;49.538;8.352;2022-12-20T01:06:58;2.80;99.90
10536;DHT22;5316;49.538;8.352;2022-12-20T01:09:26;2.80;99.90
10536;DHT22;5316;49.538;8.352;2022-12-20T01:11:52;2.80;99.90
10536;DHT22;5316;49.538;8.352;2022-12-20T01:14:20;2.70;99.90
10536;DHT22;5316;49.538;8.352;2022-12-20T01:16:47;2.70;99.90
10536;DHT22;5316;49.538;8.352;2022-12-20T01:19:16;2.70;99.90
10536;DHT22;5316;49.538;8.352;2022-12-20T01:21:43;2.70;99.90
10536;DHT22;5316;49.538;8.352;2022-12-20T01:24:10;2.70;99.90
10536;DHT22;5316;49.538;8.352;2022-12-20T01:26:37;2.70;99.90
10536;DHT22;5316;49.538;8.352;2022-12-20T01:29:04;2.70;99.90
10536;DHT22;5316;49.538;8.352;2022-12-20T01:31:33;2.60;99.90
10536;DHT22;5316;49.538;8.352;2022-12-20T01:33:59;2.60;99.90
10536;DHT22;5316;49.538;8.352;2022-12-20T01:36:28;2.60;99.90
10536;DHT22;5316;49.538;8.352;2022-12-20T01:38:56;2.70;99.90
10536;DHT22;5316;49.538;8.352;2022-12-20T01:41:23;2.70;99.90
10536;DHT22;5316;49.538;8.352;2022-12-20T01:43:52;2.70;99.90
10536;DHT22;5316;49.538;8.352;2022-12-20T01:46:20;2.70;99.90
10536;DHT22;5316;49.538;8.352;2022-12-20T01:48:51;2.70;99.90
10536;DHT22;5316;49.538;8.352;2022-12-20T01:51:20;2.70;99.90
10536;DHT22;5316;49.538;8.352;2022-12-20T01:53:51;2.70;99.90
10536;DHT22;5316;49.538;8.352;2022-12-20T01:56:20;2.70;99.90
10536;DHT22;5316;49.538;8.352;2022-12-20T01:58:48;2.70;99.90
10536;DHT22;5316;49.538;8.352;2022-12-20T02:01:17;2.70;99.90
10536;DHT22;5316;49.538;8.352;2022-12-20T02:03:44;2.70;99.90
10536;DHT22;5316;49.538;8.352;2022-12-20T02:06:17;2.80;99.90
10536;DHT22;5316;49.538;8.352;2022-12-20T02:08:45;2.70;99.90
10536;DHT22;5316;49.538;8.352;2022-12-20T02:11:22;2.70;99.90
10536;DHT22;5316;49.538;8.352;2022-12-20T02:14:01;2.70;99.90
10536;DHT22;5316;49.538;8.352;2022-12-20T02:16:35;2.70;99.90
10536;DHT22;5316;49.538;8.352;2022-12-20T02:19:12;2.70;99.90
10536;DHT22;5316;49.538;8.352;2022-12-20T02:21:48;2.70;99.90
10536;DHT22;5316;49.538;8.352;2022-12-20T02:24:44;2.70;99.90
10536;DHT22;5316;49.538;8.352;2022-12-20T02:27:33;2.70;99.90
10536;DHT22;5316;49.538;8.352;2022-12-20T02:30:12;2.70;99.90
10536;DHT22;5316;49.538;8.352;2022-12-20T02:32:46;2.70;99.90
10536;DHT22;5316;49.538;8.352;2022-12-20T02:35:20;2.70;99.90
10536;DHT22;5316;49.538;8.352;2022-12-20T02:37:49;2.70;99.90
10536;DHT22;5316;49.538;8.352;2022-12-20T02:40:20;2.70;99.90
10536;DHT22;5316;49.538;8.352;2022-12-20T02:42:51;2.70;99.90
10536;DHT22;5316;49.538;8.352;2022-12-20T02:45:22;2.70;99.90
10536;DHT22;5316;49.538;8.352;2022-12-20T02:47:54;2.70;99.90
10536;DHT22;5316;49.538;8.352;2022-12-20T02:50:24;2.70;99.90
10536;DHT22;5316;49.538;8.352;2022-12-20T02:52:53;2.70;99.90
10536;DHT22;5316;49.538;8.352;2022-12-20T02:55:25;2.70;99.90
10536;DHT22;5316;49.538;8.352;2022-12-20T02:57:57;2.70;99.90
10536;DHT22;5316;49.538;8.352;2022-12-20T03:00:30;2.70;99.90
10536;DHT22;5316;49.538;8.352;2022-12-20T03:02:59;2.80;99.90
10536;DHT22;5316;49.538;8.352;2022-12-20T03:05:46;2.80;99.90
10536;DHT22;5316;49.538;8.352;2022-12-20T03:08:13;2.80;99.90
10536;DHT22;5316;49.538;8.352;2022-12-20T03:10:41;2.80;99.90
10536;DHT22;5316;49.538;8.352;2022-12-20T03:13:10;2.80;99.90
10536;DHT22;5316;49.538;8.352;2022-12-20T03:15:38;2.80;99.90
10536;DHT22;5316;49.538;8.352;2022-12-20T03:18:05;2.80;99.90
10536;DHT22;5316;49.538;8.352;2022-12-20T03:20:31;2.80;99.90
10536;DHT22;5316;49.538;8.352;2022-12-20T03:22:58;2.80;99.90
10536;DHT22;5316;49.538;8.352;2022-12-20T03:25:25;2.80;99.90
10536;DHT22;5316;49.538;8.352;2022-12-20T03:27:52;2.90;99.90
10536;DHT22;5316;49.538;8.352;2022-12-20T03:30:19;2.90;99.90
10536;DHT22;5316;49.538;8.352;2022-12-20T03:32:47;2.90;99.90
10536;DHT22;5316;49.538;8.352;2022-12-20T03:35:14;2.90;99.90
10536;DHT22;5316;49.538;8.352;2022-12-20T03:37:41;2.90;99.90
10536;DHT22;5316;49.538;8.352;2022-12-20T03:40:08;2.90;99.90
10536;DHT22;5316;49.538;8.352;2022-12-20T03:42:36;2.90;99.90
10536;DHT22;5316;49.538;8.352;2022-12-20T03:45:03;3.00;99.90
10536;DHT22;5316;49.538;8.352;2022-12-20T03:47:30;3.00;99.90
10536;DHT22;5316;49.538;8.352;2022-12-20T03:49:58;3.00;99.90
10536;DHT22;5316;49.538;8.352;2022-12-20T03:52:25;3.00;99.90
10536;DHT22;5316;49.538;8.352;2022-12-20T03:54:52;3.10;99.90
10536;DHT22;5316;49.538;8.352;2022-12-20T03:57:19;3.10;99.90
10536;DHT22;5316;49.538;8.352;2022-12-20T03:59:45;3.10;99.90
10536;DHT22;5316;49.538;8.352;2022-12-20T04:02:12;3.10;99.90
10536;DHT22;5316;49.538;8.352;2022-12-20T04:04:39;3.20;99.90
10536;DHT22;5316;49.538;8.352;2022-12-20T04:07:08;3.20;99.90
10536;DHT22;5316;49.538;8.352;2022-12-20T04:09:34;3.20;99.90
10536;DHT22;5316;49.538;8.352;2022-12-20T04:12:01;3.20;99.90
10536;DHT22;5316;49.538;8.352;2022-12-20T04:14:28;3.20;99.90
10536;DHT22;5316;49.538;8.352;2022-12-20T04:16:55;3.20;99.90
10536;DHT22;5316;49.538;8.352;2022-12-20T04:19:21;3.20;99.90
10536;DHT22;5316;49.538;8.352;2022-12-20T04:21:48;3.20;99.90
10536;DHT22;5316;49.538;8.352;2022-12-20T04:24:16;3.20;99.90
10536;DHT22;5316;49.538;8.352;2022-12-20T04:26:43;3.20;99.90
10536;DHT22;5316;49.538;8.352;2022-12-20T04:29:10;3.20;99.90
10536;DHT22;5316;49.538;8.352;2022-12-20T04:31:37;3.20;99.90
10536;DHT22;5316;49.538;8.352;2022-12-20T04:34:03;3.20;99.90
10536;DHT22;5316;49.538;8.352;2022-12-20T04:36:30;3.20;99.90
10536;DHT22;5316;49.538;8.352;2022-12-20T04:38:57;3.20;99.90
10536;DHT22;5316;49.538;8.352;2022-12-20T04:41:25;3.20;99.90
10536;DHT22;5316;49.538;8.352;2022-12-20T04:43:53;3.20;99.90
10536;DHT22;5316;49.538;8.352;2022-12-20T04:46:22;3.20;99.90
10536;DHT22;5316;49.538;8.352;2022-12-20T04:48:49;3.20;99.90
10536;DHT22;5316;49.538;8.352;2022-12-20T04:51:16;3.20;99.90
10536;DHT22;5316;49.538;8.352;2022-12-20T04:53:43;3.20;99.90
10536;DHT22;5316;49.538;8.352;2022-12-20T04:56:13;3.20;99.90
10536;DHT22;5316;49.538;8.352;2022-12-20T04:58:41;3.30;99.90
10536;DHT22;5316;49.538;8.352;2022-12-20T05:01:07;3.20;99.90
10536;DHT22;5316;49.538;8.352;2022-12-20T05:03:35;3.30;99.90
10536;DHT22;5316;49.538;8.352;2022-12-20T05:06:01;3.30;99.90
10536;DHT22;5316;49.538;8.352;2022-12-20T05:08:28;3.30;99.90
10536;DHT22;5316;49.538;8.352;2022-12-20T05:10:55;3.20;99.90
10536;DHT22;5316;49.538;8.352;2022-12-20T05:13:21;3.20;99.90
10536;DHT22;5316;49.538;8.352;2022-12-20T05:15:52;3.20;99.90
10536;DHT22;5316;49.538;8.352;2022-12-20T05:18:19;3.20;99.90
10536;DHT22;5316;49.538;8.352;2022-12-20T05:20:47;3.20;99.90
10536;DHT22;5316;49.538;8.352;2022-12-20T05:23:34;3.20;99.90
10536;DHT22;5316;49.538;8.352;2022-12-20T05:26:18;3.20;99.90
10536;DHT22;5316;49.538;8.352;2022-12-20T05:28:46;3.20;99.90
10536;DHT22;5316;49.538;8.352;2022-12-20T05:31:14;3.20;99.90
10536;DHT22;5316;49.538;8.352;2022-12-20T05:33:41;3.20;99.90
10536;DHT22;5316;49.538;8.352;2022-12-20T05:36:08;3.30;99.90
10536;DHT22;5316;49.538;8.352;2022-12-20T05:38:38;3.30;99.90
10536;DHT22;5316;49.538;8.352;2022-12-20T05:41:05;3.30;99.90
10536;DHT22;5316;49.538;8.352;2022-12-20T05:43:31;3.40;99.90
10536;DHT22;5316;49.538;8.352;2022-12-20T05:45:58;3.40;99.90
10536;DHT22;5316;49.538;8.352;2022-12-20T05:48:29;3.50;99.90
10536;DHT22;5316;49.538;8.352;2022-12-20T05:50:56;3.50;99.90
10536;DHT22;5316;49.538;8.352;2022-12-20T05:53:23;3.50;99.90
10536;DHT22;5316;49.538;8.352;2022-12-20T05:55:52;3.60;99.90
10536;DHT22;5316;49.538;8.352;2022-12-20T05:58:19;3.60;99.90
10536;DHT22;5316;49.538;8.352;2022-12-20T06:00:46;3.60;99.90
10536;DHT22;5316;49.538;8.352;2022-12-20T06:03:13;3.60;99.90
10536;DHT22;5316;49.538;8.352;2022-12-20T06:05:42;3.60;99.90
10536;DHT22;5316;49.538;8.352;2022-12-20T06:08:10;3.60;99.90
10536;DHT22;5316;49.538;8.352;2022-12-20T06:10:38;3.60;99.90
10536;DHT22;5316;49.538;8.352;2022-12-20T06:13:05;3.60;99.90
10536;DHT22;5316;49.538;8.352;2022-12-20T06:15:32;3.60;99.90
10536;DHT22;5316;49.538;8.352;2022-12-20T06:17:59;3.70;99.90
10536;DHT22;5316;49.538;8.352;2022-12-20T06:20:27;3.70;99.90
10536;DHT22;5316;49.538;8.352;2022-12-20T06:22:55;3.70;99.90
10536;DHT22;5316;49.538;8.352;2022-12-20T06:25:22;3.70;99.90
10536;DHT22;5316;49.538;8.352;2022-12-20T06:27:48;3.70;99.90
10536;DHT22;5316;49.538;8.352;2022-12-20T06:30:16;3.70;99.90
10536;DHT22;5316;49.538;8.352;2022-12-20T06:32:43;3.80;99.90
10536;DHT22;5316;49.538;8.352;2022-12-20T06:35:09;3.80;99.90
10536;DHT22;5316;49.538;8.352;2022-12-20T06:37:36;3.80;99.90
10536;DHT22;5316;49.538;8.352;2022-12-20T06:40:07;3.80;99.90
10536;DHT22;5316;49.538;8.352;2022-12-20T06:42:34;3.90;99.90
10536;DHT22;5316;49.538;8.352;2022-12-20T06:45:01;3.90;99.90
10536;DHT22;5316;49.538;8.352;2022-12-20T06:47:28;3.90;99.90
10536;DHT22;5316;49.538;8.352;2022-12-20T06:49:55;3.90;99.90
10536;DHT22;5316;49.538;8.352;2022-12-20T06:52:22;3.90;99.90
10536;DHT22;5316;49.538;8.352;2022-12-20T06:54:49;3.90;99.90
10536;DHT22;5316;49.538;8.352;2022-12-20T06:57:17;3.90;99.90
10536;DHT22;5316;49.538;8.352;2022-12-20T06:59:44;3.90;99.90
10536;DHT22;5316;49.538;8.352;2022-12-20T07:02:11;3.90;99.90
10536;DHT22;5316;49.538;8.352;2022-12-20T07:04:38;3.80;99.90
10536;DHT22;5316;49.538;8.352;2022-12-20T07:07:05;3.80;99.90
10536;DHT22;5316;49.538;8.352;2022-12-20T07:09:32;3.80;99.90
10536;DHT22;5316;49.538;8.352;2022-12-20T07:11:59;3.80;99.90
10536;DHT22;5316;49.538;8.352;2022-12-20T07:14:27;3.80;99.90
10536;DHT22;5316;49.538;8.352;2022-12-20T07:16:54;3.80;99.90
10536;DHT22;5316;49.538;8.352;2022-12-20T07:19:21;3.80;99.90
10536;DHT22;5316;49.538;8.352;2022-12-20T07:21:48;3.80;99.90
10536;DHT22;5316;49.538;8.352;2022-12-20T07:24:15;3.80;99.90
10536;DHT22;5316;49.538;8.352;2022-12-20T07:26:43;3.80;99.90
10536;DHT22;5316;49.538;8.352;2022-12-20T07:29:11;3.80;99.90
10536;DHT22;5316;49.538;8.352;2022-12-20T07:31:39;3.90;99.90
10536;DHT22;5316;49.538;8.352;2022-12-20T07:34:06;3.90;99.90
10536;DHT22;5316;49.538;8.352;2022-12-20T07:36:33;3.90;99.90
10536;DHT22;5316;49.538;8.352;2022-12-20T07:39:00;4.00;99.90
10536;DHT22;5316;49.538;8.352;2022-12-20T07:41:27;4.00;99.90
10536;DHT22;5316;49.538;8.352;2022-12-20T07:43:55;4.00;99.90
10536;DHT22;5316;49.538;8.352;2022-12-20T07:46:23;4.00;99.90
10536;DHT22;5316;49.538;8.352;2022-12-20T07:48:51;4.10;99.90
10536;DHT22;5316;49.538;8.352;2022-12-20T07:51:22;4.30;99.90
10536;DHT22;5316;49.538;8.352;2022-12-20T07:53:53;4.10;99.90
10536;DHT22;5316;49.538;8.352;2022-12-20T07:56:22;4.10;99.90
10536;DHT22;5316;49.538;8.352;2022-12-20T07:58:50;4.10;99.90
10536;DHT22;5316;49.538;8.352;2022-12-20T08:01:21;4.10;99.90
10536;DHT22;5316;49.538;8.352;2022-12-20T08:03:52;4.10;99.90
10536;DHT22;5316;49.538;8.352;2022-12-20T08:06:22;4.20;99.90
10536;DHT22;5316;49.538;8.352;2022-12-20T08:08:53;4.20;99.90
10536;DHT22;5316;49.538;8.352;2022-12-20T08:11:21;4.20;99.90
10536;DHT22;5316;49.538;8.352;2022-12-20T08:13:49;4.30;99.90
10536;DHT22;5316;49.538;8.352;2022-12-20T08:16:17;4.30;99.90
10536;DHT22;5316;49.538;8.352;2022-12-20T08:18:45;4.30;99.90
10536;DHT22;5316;49.538;8.352;2022-12-20T08:21:15;4.40;99.90
10536;DHT22;5316;49.538;8.352;2022-12-20T08:23:42;4.40;99.90
10536;DHT22;5316;49.538;8.352;2022-12-20T08:26:09;4.40;99.90
10536;DHT22;5316;49.538;8.352;2022-12-20T08:28:36;4.50;99.90
10536;DHT22;5316;49.538;8.352;2022-12-20T08:31:05;4.50;99.90
10536;DHT22;5316;49.538;8.352;2022-12-20T08:33:34;4.50;99.90
10536;DHT22;5316;49.538;8.352;2022-12-20T08:36:04;4.50;99.90
10536;DHT22;5316;49.538;8.352;2022-12-20T08:38:33;4.60;99.90
10536;DHT22;5316;49.538;8.352;2022-12-20T08:41:01;4.60;99.90
10536;DHT22;5316;49.538;8.352;2022-12-20T08:43:29;4.60;99.90
10536;DHT22;5316;49.538;8.352;2022-12-20T08:45:56;4.60;99.90
10536;DHT22;5316;49.538;8.352;2022-12-20T08:51:02;4.70;99.90
10536;DHT22;5316;49.538;8.352;2022-12-20T08:53:34;4.80;99.90
10536;DHT22;5316;49.538;8.352;2022-12-20T08:56:05;4.70;99.90
10536;DHT22;5316;49.538;8.352;2022-12-20T08:58:33;4.80;99.90
10536;DHT22;5316;49.538;8.352;2022-12-20T09:01:00;4.80;99.90
10536;DHT22;5316;49.538;8.352;2022-12-20T09:03:30;4.90;99.90
10536;DHT22;5316;49.538;8.352;2022-12-20T09:05:57;4.90;99.90
10536;DHT22;5316;49.538;8.352;2022-12-20T09:08:24;5.00;99.90
10536;DHT22;5316;49.538;8.352;2022-12-20T09:10:53;5.00;99.90
10536;DHT22;5316;49.538;8.352;2022-12-20T09:13:20;5.10;99.90
10536;DHT22;5316;49.538;8.352;2022-12-20T09:15:47;5.20;99.90
10536;DHT22;5316;49.538;8.352;2022-12-20T09:18:14;5.20;99.90
10536;DHT22;5316;49.538;8.352;2022-12-20T09:20:42;5.30;99.90
10536;DHT22;5316;49.538;8.352;2022-12-20T09:23:10;5.30;99.90
10536;DHT22;5316;49.538;8.352;2022-12-20T09:25:38;5.40;99.90
10536;DHT22;5316;49.538;8.352;2022-12-20T09:28:06;5.50;99.90
10536;DHT22;5316;49.538;8.352;2022-12-20T09:30:33;5.50;99.90
10536;DHT22;5316;49.538;8.352;2022-12-20T09:33:00;5.60;99.90
10536;DHT22;5316;49.538;8.352;2022-12-20T09:35:27;5.70;99.90
10536;DHT22;5316;49.538;8.352;2022-12-20T09:37:55;5.70;99.90
10536;DHT22;5316;49.538;8.352;2022-12-20T09:40:25;5.80;99.90
10536;DHT22;5316;49.538;8.352;2022-12-20T09:42:53;5.90;99.90
10536;DHT22;5316;49.538;8.352;2022-12-20T09:45:26;6.00;99.90
10536;DHT22;5316;49.538;8.352;2022-12-20T09:47:54;6.00;99.90
10536;DHT22;5316;49.538;8.352;2022-12-20T09:50:39;6.10;99.90
10536;DHT22;5316;49.538;8.352;2022-12-20T09:53:17;6.20;99.90
10536;DHT22;5316;49.538;8.352;2022-12-20T09:55:52;6.30;99.90
10536;DHT22;5316;49.538;8.352;2022-12-20T09:58:45;6.40;99.90
10536;DHT22;5316;49.538;8.352;2022-12-20T10:01:20;6.40;99.90
10536;DHT22;5316;49.538;8.352;2022-12-20T10:03:49;6.40;99.90
10536;DHT22;5316;49.538;8.352;2022-12-20T10:06:22;6.50;99.90
10536;DHT22;5316;49.538;8.352;2022-12-20T10:08:56;6.60;99.90
10536;DHT22;5316;49.538;8.352;2022-12-20T10:11:47;6.60;99.90
10536;DHT22;5316;49.538;8.352;2022-12-20T10:14:45;6.60;99.90
10536;DHT22;5316;49.538;8.352;2022-12-20T10:17:25;6.70;99.90
10536;DHT22;5316;49.538;8.352;2022-12-20T10:20:20;6.80;99.90
10536;DHT22;5316;49.538;8.352;2022-12-20T10:22:53;6.80;99.90
10536;DHT22;5316;49.538;8.352;2022-12-20T10:25:23;6.80;99.90
10536;DHT22;5316;49.538;8.352;2022-12-20T10:27:55;6.80;99.90
10536;DHT22;5316;49.538;8.352;2022-12-20T10:30:25;6.80;99.90
10536;DHT22;5316;49.538;8.352;2022-12-20T10:32:55;6.80;99.90
10536;DHT22;5316;49.538;8.352;2022-12-20T10:35:26;6.70;99.90
10536;DHT22;5316;49.538;8.352;2022-12-20T10:37:58;6.70;99.90
10536;DHT22;5316;49.538;8.352;2022-12-20T10:40:28;6.70;99.90
10536;DHT22;5316;49.538;8.352;2022-12-20T10:42:55;6.60;99.90
10536;DHT22;5316;49.538;8.352;2022-12-20T10:45:35;6.60;99.90
10536;DHT22;5316;49.538;8.352;2022-12-20T10:50:55;6.70;99.90
10536;DHT22;5316;49.538;8.352;2022-12-20T10:53:23;6.70;99.90
10536;DHT22;5316;49.538;8.352;2022-12-20T10:55:52;6.80;99.90
10536;DHT22;5316;49.538;8.352;2022-12-20T10:58:31;6.90;99.90
10536;DHT22;5316;49.538;8.352;2022-12-20T11:01:10;7.00;99.90
10536;DHT22;5316;49.538;8.352;2022-12-20T11:03:55;7.00;99.90
10536;DHT22;5316;49.538;8.352;2022-12-20T11:06:27;7.10;99.90
10536;DHT22;5316;49.538;8.352;2022-12-20T11:09:13;7.20;99.90
10536;DHT22;5316;49.538;8.352;2022-12-20T11:12:06;7.20;99.90
10536;DHT22;5316;49.538;8.352;2022-12-20T11:14:35;7.30;99.90
10536;DHT22;5316;49.538;8.352;2022-12-20T11:17:06;7.30;99.90
10536;DHT22;5316;49.538;8.352;2022-12-20T11:22:42;7.40;99.90
10536;DHT22;5316;49.538;8.352;2022-12-20T11:25:35;7.50;99.90
10536;DHT22;5316;49.538;8.352;2022-12-20T11:28:18;7.50;99.90
10536;DHT22;5316;49.538;8.352;2022-12-20T11:31:06;7.60;99.90
10536;DHT22;5316;49.538;8.352;2022-12-20T11:33:44;7.60;99.90
10536;DHT22;5316;49.538;8.352;2022-12-20T11:36:24;7.70;99.90
10536;DHT22;5316;49.538;8.352;2022-12-20T11:38:59;7.70;99.90
10536;DHT22;5316;49.538;8.352;2022-12-20T11:41:30;7.70;99.90
10536;DHT22;5316;49.538;8.352;2022-12-20T11:44:11;7.70;99.90
10536;DHT22;5316;49.538;8.352;2022-12-20T11:46:57;7.60;99.90
10536;DHT22;5316;49.538;8.352;2022-12-20T11:49:44;7.60;99.90
10536;DHT22;5316;49.538;8.352;2022-12-20T11:52:19;7.60;99.90
10536;DHT22;5316;49.538;8.352;2022-12-20T11:54:57;7.60;99.90
10536;DHT22;5316;49.538;8.352;2022-12-20T11:57:33;7.60;99.90
10536;DHT22;5316;49.538;8.352;2022-12-20T12:00:02;7.50;99.90
10536;DHT22;5316;49.538;8.352;2022-12-20T12:02:34;7.50;99.90
10536;DHT22;5316;49.538;8.352;2022-12-20T12:05:05;7.50;99.90
10536;DHT22;5316;49.538;8.352;2022-12-20T12:07:35;7.50;99.90
10536;DHT22;5316;49.538;8.352;2022-12-20T12:10:13;7.60;99.90
10536;DHT22;5316;49.538;8.352;2022-12-20T12:12:43;7.60;99.90
10536;DHT22;5316;49.538;8.352;2022-12-20T12:15:20;7.60;99.90
10536;DHT22;5316;49.538;8.352;2022-12-20T12:17:53;7.70;99.90
10536;DHT22;5316;49.538;8.352;2022-12-20T12:20:30;7.70;99.90
10536;DHT22;5316;49.538;8.352;2022-12-20T12:23:02;7.80;99.90
10536;DHT22;5316;49.538;8.352;2022-12-20T12:25:31;7.80;99.90
10536;DHT22;5316;49.538;8.352;2022-12-20T12:27:58;7.80;99.90
10536;DHT22;5316;49.538;8.352;2022-12-20T12:30:28;7.90;99.90
10536;DHT22;5316;49.538;8.352;2022-12-20T12:33:05;7.90;99.90
10536;DHT22;5316;49.538;8.352;2022-12-20T12:35:56;7.90;99.90
10536;DHT22;5316;49.538;8.352;2022-12-20T12:38:48;7.90;99.90
10536;DHT22;5316;49.538;8.352;2022-12-20T12:41:33;8.00;99.90
10536;DHT22;5316;49.538;8.352;2022-12-20T12:44:28;8.10;99.90
10536;DHT22;5316;49.538;8.352;2022-12-20T12:46:59;8.20;99.90
10536;DHT22;5316;49.538;8.352;2022-12-20T12:49:29;8.30;99.90
10536;DHT22;5316;49.538;8.352;2022-12-20T12:51:58;8.40;99.90
10536;DHT22;5316;49.538;8.352;2022-12-20T12:54:29;8.50;99.90
10536;DHT22;5316;49.538;8.352;2022-12-20T12:57:01;8.60;99.90
10536;DHT22;5316;49.538;8.352;2022-12-20T12:59:50;8.60;99.90
10536;DHT22;5316;49.538;8.352;2022-12-20T13:02:48;8.70;99.90
10536;DHT22;5316;49.538;8.352;2022-12-20T13:05:33;8.70;99.90
10536;DHT22;5316;49.538;8.352;2022-12-20T13:08:01;8.70;99.90
10536;DHT22;5316;49.538;8.352;2022-12-20T13:10:56;8.80;99.90
10536;DHT22;5316;49.538;8.352;2022-12-20T13:13:24;8.80;99.90
10536;DHT22;5316;49.538;8.352;2022-12-20T13:16:11;8.70;99.90
10536;DHT22;5316;49.538;8.352;2022-12-20T13:19:04;8.80;99.90
10536;DHT22;5316;49.538;8.352;2022-12-20T13:21:37;8.80;99.90
10536;DHT22;5316;49.538;8.352;2022-12-20T13:24:33;8.80;99.90
10536;DHT22;5316;49.538;8.352;2022-12-20T13:27:03;8.80;99.90
10536;DHT22;5316;49.538;8.352;2022-12-20T13:29:51;8.70;99.90
10536;DHT22;5316;49.538;8.352;2022-12-20T13:35:30;8.70;99.90
10536;DHT22;5316;49.538;8.352;2022-12-20T13:37:59;8.70;99.90
10536;DHT22;5316;49.538;8.352;2022-12-20T13:40:34;8.70;99.90
10536;DHT22;5316;49.538;8.352;2022-12-20T13:43:06;8.70;99.90
10536;DHT22;5316;49.538;8.352;2022-12-20T13:45:37;8.70;99.90
10536;DHT22;5316;49.538;8.352;2022-12-20T13:48:05;8.70;99.90
10536;DHT22;5316;49.538;8.352;2022-12-20T13:50:35;8.60;99.90
10536;DHT22;5316;49.538;8.352;2022-12-20T13:53:05;8.60;99.90
10536;DHT22;5316;49.538;8.352;2022-12-20T13:55:43;8.60;99.90
10536;DHT22;5316;49.538;8.352;2022-12-20T13:58:14;8.50;99.90
10536;DHT22;5316;49.538;8.352;2022-12-20T14:00:41;8.50;99.90
10536;DHT22;5316;49.538;8.352;2022-12-20T14:03:19;8.50;99.90
10536;DHT22;5316;49.538;8.352;2022-12-20T14:05:45;8.50;99.90
10536;DHT22;5316;49.538;8.352;2022-12-20T14:08:15;8.50;99.90
10536;DHT22;5316;49.538;8.352;2022-12-20T14:10:42;8.50;99.90
10536;DHT22;5316;49.538;8.352;2022-12-20T14:13:19;8.50;99.90
10536;DHT22;5316;49.538;8.352;2022-12-20T14:15:46;8.50;99.90
10536;DHT22;5316;49.538;8.352;2022-12-20T14:18:17;8.50;99.90
10536;DHT22;5316;49.538;8.352;2022-12-20T14:20:46;8.60;99.90
10536;DHT22;5316;49.538;8.352;2022-12-20T14:23:16;8.70;99.90
10536;DHT22;5316;49.538;8.352;2022-12-20T14:25:46;8.80;99.90
10536;DHT22;5316;49.538;8.352;2022-12-20T14:28:21;8.90;99.90
10536;DHT22;5316;49.538;8.352;2022-12-20T14:30:50;9.10;99.90
10536;DHT22;5316;49.538;8.352;2022-12-20T14:33:19;9.10;99.90
10536;DHT22;5316;49.538;8.352;2022-12-20T14:35:49;9.20;99.90
10536;DHT22;5316;49.538;8.352;2022-12-20T14:38:21;9.10;99.90
10536;DHT22;5316;49.538;8.352;2022-12-20T14:40:49;9.10;99.90
10536;DHT22;5316;49.538;8.352;2022-12-20T14:43:24;9.00;99.90
10536;DHT22;5316;49.538;8.352;2022-12-20T14:46:06;8.90;99.90
10536;DHT22;5316;49.538;8.352;2022-12-20T14:48:33;8.70;99.90
10536;DHT22;5316;49.538;8.352;2022-12-20T14:51:03;8.60;99.90
10536;DHT22;5316;49.538;8.352;2022-12-20T14:53:31;8.60;99.90
10536;DHT22;5316;49.538;8.352;2022-12-20T14:55:57;8.50;99.90
10536;DHT22;5316;49.538;8.352;2022-12-20T14:58:27;8.40;99.90
10536;DHT22;5316;49.538;8.352;2022-12-20T15:00:56;8.40;99.90
10536;DHT22;5316;49.538;8.352;2022-12-20T15:03:23;8.30;99.90
10536;DHT22;5316;49.538;8.352;2022-12-20T15:05:52;8.30;99.90
10536;DHT22;5316;49.538;8.352;2022-12-20T15:08:21;8.20;99.90
10536;DHT22;5316;49.538;8.352;2022-12-20T15:10:52;8.20;99.90
10536;DHT22;5316;49.538;8.352;2022-12-20T15:13:21;8.20;99.90
10536;DHT22;5316;49.538;8.352;2022-12-20T15:15:51;8.10;99.90
10536;DHT22;5316;49.538;8.352;2022-12-20T15:18:19;8.10;99.90
10536;DHT22;5316;49.538;8.352;2022-12-20T15:20:48;8.10;99.90
10536;DHT22;5316;49.538;8.352;2022-12-20T15:23:19;8.00;99.90
10536;DHT22;5316;49.538;8.352;2022-12-20T15:25:46;8.00;99.90
10536;DHT22;5316;49.538;8.352;2022-12-20T15:28:16;8.00;99.90
10536;DHT22;5316;49.538;8.352;2022-12-20T15:30:43;8.00;99.90
10536;DHT22;5316;49.538;8.352;2022-12-20T15:33:15;7.90;99.90
10536;DHT22;5316;49.538;8.352;2022-12-20T15:35:43;7.90;99.90
10536;DHT22;5316;49.538;8.352;2022-12-20T15:38:15;7.90;99.90
10536;DHT22;5316;49.538;8.352;2022-12-20T15:40:43;7.90;99.90
10536;DHT22;5316;49.538;8.352;2022-12-20T15:43:15;7.90;99.90
10536;DHT22;5316;49.538;8.352;2022-12-20T15:45:44;7.90;99.90
10536;DHT22;5316;49.538;8.352;2022-12-20T15:48:18;7.80;99.90
10536;DHT22;5316;49.538;8.352;2022-12-20T15:50:49;7.80;99.90
10536;DHT22;5316;49.538;8.352;2022-12-20T15:53:19;7.80;99.90
10536;DHT22;5316;49.538;8.352;2022-12-20T15:55:49;7.80;99.90
10536;DHT22;5316;49.538;8.352;2022-12-20T15:58:16;7.80;99.90
10536;DHT22;5316;49.538;8.352;2022-12-20T16:00:43;7.80;99.90
10536;DHT22;5316;49.538;8.352;2022-12-20T16:03:16;7.90;99.90
10536;DHT22;5316;49.538;8.352;2022-12-20T16:05:43;7.90;99.90
10536;DHT22;5316;49.538;8.352;2022-12-20T16:08:10;7.90;99.90
10536;DHT22;5316;49.538;8.352;2022-12-20T16:10:37;7.90;99.90
10536;DHT22;5316;49.538;8.352;2022-12-20T16:13:05;7.90;99.90
10536;DHT22;5316;49.538;8.352;2022-12-20T16:15:33;7.90;99.90
10536;DHT22;5316;49.538;8.352;2022-12-20T16:18:00;7.90;99.90
10536;DHT22;5316;49.538;8.352;2022-12-20T16:20:29;7.90;99.90
10536;DHT22;5316;49.538;8.352;2022-12-20T16:22:56;7.90;99.90
10536;DHT22;5316;49.538;8.352;2022-12-20T16:25:25;7.90;99.90
10536;DHT22;5316;49.538;8.352;2022-12-20T16:27:52;7.90;99.90
10536;DHT22;5316;49.538;8.352;2022-12-20T16:30:19;7.80;99.90
10536;DHT22;5316;49.538;8.352;2022-12-20T16:32:46;7.80;99.90
10536;DHT22;5316;49.538;8.352;2022-12-20T16:35:22;7.80;99.90